createdAt,value
2019-01-20T00:00:24.951Z,53.97
2019-01-20T00:05:22.053Z,54.45
2019-01-20T00:10:19.205Z,54.24
2019-01-20T00:15:18.318Z,54.54
2019-01-20T00:20:15.804Z,54.67
2019-01-20T00:25:13.049Z,54.22
2019-01-20T00:30:13.524Z,53.89
2019-01-20T00:35:10.525Z,53.96
2019-01-20T00:40:12.474Z,54.44
2019-01-20T00:45:17.084Z,53.53
2019-01-20T00:50:15.808Z,52.14
2019-01-20T00:55:15.683Z,52.96
2019-01-20T01:00:28.508Z,53.61
2019-01-20T01:05:26.240Z,54.26
2019-01-20T01:10:23.886Z,54.23
2019-01-20T01:15:20.796Z,54.32
2019-01-20T01:20:19.285Z,53.75
2019-01-20T01:25:16.797Z,52.97
2019-01-20T01:30:17.681Z,53.33
2019-01-20T01:35:14.675Z,54.87
2019-01-20T01:40:15.102Z,55.08
2019-01-20T01:45:15.714Z,55.17
2019-01-20T01:50:14.373Z,54.04
2019-01-20T01:55:32.868Z,55.67
2019-01-20T02:00:29.778Z,54.72
2019-01-20T02:05:26.766Z,53.69
2019-01-20T02:10:23.657Z,53.70
2019-01-20T02:15:21.321Z,55.00
2019-01-20T02:20:22.180Z,55.09
2019-01-20T02:25:19.533Z,54.88
2019-01-20T02:30:20.244Z,54.91
2019-01-20T02:35:17.195Z,55.48
2019-01-20T02:40:16.096Z,55.82
2019-01-20T02:45:14.739Z,55.59
2019-01-20T02:50:17.430Z,53.35
2019-01-20T02:55:14.737Z,53.71
2019-01-20T03:00:19.154Z,53.39
2019-01-20T03:05:17.761Z,53.90
2019-01-20T03:10:15.036Z,54.13
2019-01-20T03:15:13.647Z,53.70
2019-01-20T03:20:15.510Z,54.40
2019-01-20T03:25:15.053Z,54.70
2019-01-20T03:30:15.591Z,56.18
2019-01-20T03:35:14.708Z,53.23
2019-01-20T03:40:15.969Z,53.25
2019-01-20T03:45:15.382Z,53.72
2019-01-20T03:50:15.122Z,53.19
2019-01-20T03:55:15.111Z,53.00
2019-01-20T04:00:23.113Z,52.93
2019-01-20T04:05:20.034Z,53.77
2019-01-20T04:10:16.972Z,53.95
2019-01-20T04:15:15.086Z,53.90
2019-01-20T04:20:14.448Z,54.64
2019-01-20T04:25:17.588Z,54.21
2019-01-20T04:30:17.752Z,54.23
2019-01-20T04:35:14.667Z,54.18
2019-01-20T04:40:16.528Z,54.34
2019-01-20T04:45:14.044Z,54.25
2019-01-20T04:50:15.797Z,54.65
2019-01-20T04:55:14.108Z,54.48
2019-01-20T05:00:15.362Z,54.54
2019-01-20T05:05:12.355Z,54.77
2019-01-20T05:10:12.612Z,53.90
2019-01-20T05:15:13.736Z,54.76
2019-01-20T05:20:11.468Z,54.23
2019-01-20T05:25:10.077Z,54.43
2019-01-20T05:30:14.485Z,54.21
2019-01-20T05:35:11.603Z,53.91
2019-01-20T05:40:14.696Z,53.58
2019-01-20T05:45:15.499Z,53.91
2019-01-20T05:50:13.453Z,53.62
2019-01-20T05:55:14.646Z,54.27
2019-01-20T06:00:22.502Z,53.72
2019-01-20T06:05:19.408Z,54.18
2019-01-20T06:10:16.356Z,53.78
2019-01-20T06:15:19.001Z,53.30
2019-01-20T06:20:17.710Z,53.43
2019-01-20T06:25:14.931Z,53.56
2019-01-20T06:30:24.926Z,53.34
2019-01-20T06:35:21.955Z,53.70
2019-01-20T06:40:18.905Z,53.39
2019-01-20T06:45:15.783Z,53.53
2019-01-20T06:50:18.447Z,53.23
2019-01-20T06:55:15.542Z,52.85
2019-01-20T07:00:21.659Z,52.12
2019-01-20T07:05:18.544Z,52.52
2019-01-20T07:10:17.390Z,52.90
2019-01-20T07:15:18.120Z,52.68
2019-01-20T07:20:15.065Z,52.28
2019-01-20T07:25:12.428Z,52.04
2019-01-20T07:30:18.939Z,52.17
2019-01-20T07:35:16.442Z,51.97
2019-01-20T07:40:17.108Z,52.24
2019-01-20T07:45:15.812Z,52.19
2019-01-20T07:50:17.275Z,52.12
2019-01-20T07:55:14.194Z,51.97
2019-01-20T08:00:18.601Z,51.57
2019-01-20T08:05:16.406Z,51.56
2019-01-20T08:10:17.169Z,52.00
2019-01-20T08:15:15.679Z,51.61
2019-01-20T08:20:18.278Z,51.64
2019-01-20T08:25:19.176Z,50.42
2019-01-20T08:30:24.754Z,50.79
2019-01-20T08:35:21.874Z,50.15
2019-01-20T08:40:27.761Z,48.62
2019-01-20T08:45:38.676Z,49.08
2019-01-20T08:50:35.584Z,47.01
2019-01-20T08:55:32.563Z,46.49
2019-01-20T09:00:31.426Z,45.91
2019-01-20T09:05:28.310Z,45.79
2019-01-20T09:10:25.434Z,46.33
2019-01-20T09:15:22.376Z,46.22
2019-01-20T09:20:19.301Z,47.73
2019-01-20T09:25:16.447Z,48.24
2019-01-20T09:30:20.158Z,48.57
2019-01-20T09:35:17.766Z,47.14
2019-01-20T09:40:16.746Z,46.34
2019-01-20T09:45:28.007Z,44.79
2019-01-20T09:50:24.926Z,44.24
2019-01-20T09:55:21.978Z,44.10
2019-01-20T10:00:29.099Z,43.35
2019-01-20T10:05:26.070Z,44.18
2019-01-20T10:10:25.401Z,43.88
2019-01-20T10:15:22.447Z,43.45
2019-01-20T10:20:28.444Z,43.96
2019-01-20T10:25:25.350Z,44.06
2019-01-20T10:30:32.011Z,44.24
2019-01-20T10:35:36.009Z,44.34
2019-01-20T10:40:33.043Z,44.39
2019-01-20T10:45:29.998Z,45.04
2019-01-20T10:50:26.994Z,43.96
2019-01-20T10:55:23.958Z,44.44
2019-01-20T11:00:37.026Z,45.12
2019-01-20T11:05:34.071Z,45.01
2019-01-20T11:10:31.021Z,45.17
2019-01-20T11:15:27.944Z,46.39
2019-01-20T11:20:24.921Z,46.63
2019-01-20T11:25:26.556Z,46.68
2019-01-20T11:30:23.468Z,46.30
2019-01-20T11:35:20.531Z,47.21
2019-01-20T11:40:17.623Z,47.41
2019-01-20T11:45:26.621Z,46.60
2019-01-20T11:50:23.876Z,47.53
2019-01-20T11:55:24.998Z,47.46
2019-01-20T12:00:31.452Z,47.12
2019-01-20T12:05:30.178Z,47.21
2019-01-20T12:10:27.126Z,46.10
2019-01-20T12:15:24.095Z,46.57
2019-01-20T12:20:21.019Z,46.76
2019-01-20T12:25:19.623Z,45.45
2019-01-20T12:30:24.777Z,46.00
2019-01-20T12:35:21.915Z,45.26
2019-01-20T12:40:27.259Z,45.16
2019-01-20T12:45:24.296Z,46.13
2019-01-20T12:50:21.518Z,46.40
2019-01-20T12:55:18.479Z,47.43
2019-01-20T13:00:19.099Z,47.41
2019-01-20T13:05:18.325Z,48.15
2019-01-20T13:10:19.630Z,46.68
2019-01-20T13:15:44.665Z,48.53
2019-01-20T13:20:41.651Z,48.36
2019-01-20T13:25:38.608Z,48.37
2019-01-20T13:30:35.596Z,48.56
2019-01-20T13:35:32.587Z,48.44
2019-01-20T13:40:47.647Z,48.97
2019-01-20T13:45:46.774Z,49.57
2019-01-20T13:50:43.695Z,49.53
2019-01-20T13:55:40.682Z,49.27
2019-01-20T14:00:37.624Z,49.27
2019-01-20T14:05:34.612Z,49.43
2019-01-20T14:10:31.793Z,49.10
2019-01-20T14:15:29.803Z,48.90
2019-01-20T14:20:26.715Z,49.75
2019-01-20T14:25:29.740Z,50.24
2019-01-20T14:30:31.549Z,50.21
2019-01-20T14:35:28.537Z,50.16
2019-01-20T14:40:25.458Z,50.17
2019-01-20T14:45:22.945Z,50.08
2019-01-20T14:50:26.928Z,50.96
2019-01-20T14:55:24.484Z,51.30
2019-01-20T15:00:32.142Z,52.14
2019-01-20T15:05:29.095Z,51.47
2019-01-20T15:10:26.038Z,51.43
2019-01-20T15:15:38.604Z,51.35
2019-01-20T15:20:35.544Z,51.56
2019-01-20T15:25:32.506Z,50.88
2019-01-20T15:30:31.398Z,51.24
2019-01-20T15:35:28.453Z,51.43
2019-01-20T15:40:25.450Z,51.65
2019-01-20T15:45:23.863Z,52.20
2019-01-20T15:50:24.873Z,52.07
2019-01-20T15:55:21.816Z,53.00
2019-01-20T16:00:25.608Z,53.59
2019-01-20T16:05:23.966Z,54.27
2019-01-20T16:10:21.209Z,54.89
2019-01-20T16:15:24.620Z,55.46
2019-01-20T16:20:20.720Z,55.10
2019-01-20T16:25:27.136Z,54.35
2019-01-20T16:30:28.390Z,54.57
2019-01-20T16:35:25.597Z,53.86
2019-01-20T16:40:24.145Z,54.45
2019-01-20T16:45:32.839Z,54.77
2019-01-20T16:50:27.325Z,54.77
2019-01-20T16:55:24.242Z,54.85
2019-01-20T17:00:27.431Z,54.09
2019-01-20T17:05:26.818Z,53.98
2019-01-20T17:10:27.139Z,54.31
2019-01-20T17:15:30.510Z,54.45
2019-01-20T17:20:27.429Z,54.51
2019-01-20T17:25:24.433Z,54.17
2019-01-20T17:30:35.689Z,53.98
2019-01-20T17:35:32.617Z,53.73
2019-01-20T17:40:29.952Z,54.10
2019-01-20T17:45:35.974Z,54.94
2019-01-20T17:50:36.985Z,55.33
2019-01-20T17:55:33.984Z,55.44
2019-01-20T18:00:37.496Z,55.95
2019-01-20T18:05:36.351Z,56.08
2019-01-20T18:10:33.644Z,56.37
2019-01-20T18:15:30.605Z,56.77
2019-01-20T18:20:30.704Z,56.99
2019-01-20T18:25:27.713Z,57.16
2019-01-20T18:30:29.993Z,56.98
2019-01-20T18:35:27.532Z,56.99
2019-01-20T18:40:26.100Z,56.68
2019-01-20T18:45:32.317Z,56.91
2019-01-20T18:50:32.889Z,56.97
2019-01-20T18:55:29.929Z,56.95
2019-01-20T19:00:40.221Z,56.77
2019-01-20T19:05:37.256Z,56.72
2019-01-20T19:10:34.188Z,57.37
2019-01-20T19:15:31.136Z,57.05
2019-01-20T19:20:28.113Z,56.83
2019-01-20T19:25:25.035Z,56.24
2019-01-20T19:30:27.077Z,56.87
2019-01-20T19:35:24.602Z,57.06
2019-01-20T19:40:21.565Z,57.29
2019-01-20T19:45:20.168Z,57.33
2019-01-20T19:50:18.047Z,57.49
2019-01-20T19:55:29.888Z,57.30
2019-01-20T20:00:31.361Z,56.77
2019-01-20T20:05:28.483Z,56.58
2019-01-20T20:10:26.816Z,56.64
2019-01-20T20:15:25.572Z,56.66
2019-01-20T20:20:22.615Z,56.52
2019-01-20T20:25:22.337Z,56.38
2019-01-20T20:30:26.494Z,56.79
2019-01-20T20:35:23.558Z,56.89
2019-01-20T20:40:20.738Z,56.71
2019-01-20T20:45:24.585Z,57.43
2019-01-20T20:50:21.702Z,57.36
2019-01-20T20:55:19.343Z,56.88
2019-01-20T21:00:23.881Z,57.02
2019-01-20T21:05:20.803Z,57.16
2019-01-20T21:10:18.685Z,56.29
2019-01-20T21:15:15.791Z,56.27
2019-01-20T21:20:22.111Z,56.13
2019-01-20T21:25:19.088Z,56.96
2019-01-20T21:30:20.927Z,56.34
2019-01-20T21:35:17.855Z,55.88
2019-01-20T21:40:17.226Z,54.79
2019-01-20T21:45:16.250Z,55.05
2019-01-20T21:50:23.104Z,54.82
2019-01-20T21:55:20.007Z,54.63
2019-01-20T22:00:20.206Z,53.82
2019-01-20T22:05:17.117Z,53.60
2019-01-20T22:10:16.979Z,53.42
2019-01-20T22:15:14.441Z,52.77
2019-01-20T22:20:17.717Z,52.99
2019-01-20T22:25:14.924Z,52.77
2019-01-20T22:30:21.163Z,52.85
2019-01-20T22:35:18.282Z,52.84
2019-01-20T22:40:17.233Z,53.28
2019-01-20T22:45:23.742Z,52.93
2019-01-20T22:50:22.509Z,53.46
2019-01-20T22:55:19.769Z,53.04
2019-01-20T23:00:38.921Z,53.15
2019-01-20T23:05:35.939Z,53.25
2019-01-20T23:10:32.975Z,53.40
2019-01-20T23:15:29.895Z,53.31
2019-01-20T23:20:26.873Z,53.35
2019-01-20T23:25:23.797Z,53.04
2019-01-20T23:30:20.848Z,53.80
2019-01-20T23:35:17.748Z,54.06
2019-01-20T23:40:15.814Z,53.11
2019-01-20T23:45:13.179Z,54.04
2019-01-20T23:50:16.558Z,53.96
2019-01-20T23:55:13.470Z,54.00
